createdAt,value
2022-08-02T00:00:13.858Z,16.71
2022-08-02T00:02:44.749Z,16.72
2022-08-02T00:05:11.810Z,16.57
2022-08-02T00:07:41.138Z,16.44
2022-08-02T00:10:10.414Z,16.51
2022-08-02T00:12:37.419Z,16.62
2022-08-02T00:15:05.945Z,16.49
2022-08-02T00:17:32.642Z,16.44
2022-08-02T00:19:59.253Z,16.39
2022-08-02T00:22:25.805Z,16.29
2022-08-02T00:24:55.550Z,16.30
2022-08-02T00:27:22.111Z,16.48
2022-08-02T00:29:53.237Z,16.59
2022-08-02T00:32:20.818Z,16.68
2022-08-02T00:34:47.611Z,16.75
2022-08-02T00:37:14.277Z,16.80
2022-08-02T00:39:42.489Z,16.67
2022-08-02T00:42:09.810Z,16.61
2022-08-02T00:44:36.612Z,16.59
2022-08-02T00:47:03.370Z,16.61
2022-08-02T00:49:30.203Z,16.59
2022-08-02T00:51:59.638Z,16.61
2022-08-02T00:54:26.706Z,16.68
2022-08-02T00:56:53.258Z,16.71
2022-08-02T00:59:19.949Z,16.67
2022-08-02T01:01:55.666Z,16.62
2022-08-02T01:04:30.292Z,16.41
2022-08-02T01:06:58.883Z,16.38
2022-08-02T01:09:25.883Z,16.35
2022-08-02T01:11:52.697Z,16.33
2022-08-02T01:14:20.857Z,16.07
2022-08-02T01:16:54.085Z,15.91
2022-08-02T01:19:39.448Z,15.96
2022-08-02T01:22:19.253Z,16.05
2022-08-02T01:24:56.210Z,15.99
2022-08-02T01:28:00.046Z,15.88
2022-08-02T01:30:28.611Z,15.86
2022-08-02T01:33:00.395Z,15.89
2022-08-02T01:35:50.898Z,15.91
2022-08-02T01:38:27.601Z,15.89
2022-08-02T01:40:59.869Z,15.97
2022-08-02T01:43:30.465Z,16.05
2022-08-02T01:46:00.076Z,16.20
2022-08-02T01:48:34.303Z,16.26
2022-08-02T01:51:04.147Z,16.21
2022-08-02T01:53:32.443Z,16.18
2022-08-02T01:56:00.107Z,16.18
2022-08-02T01:58:33.795Z,16.21
2022-08-02T02:01:01.699Z,16.08
2022-08-02T02:03:29.901Z,16.08
2022-08-02T02:05:59.053Z,16.04
2022-08-02T02:08:32.337Z,16.05
2022-08-02T02:12:11.470Z,16.06
2022-08-02T02:13:48.933Z,16.08
2022-08-02T02:16:16.445Z,16.03
2022-08-02T02:18:45.019Z,15.89
2022-08-02T02:21:12.379Z,15.66
2022-08-02T02:23:39.168Z,15.63
2022-08-02T02:26:12.931Z,15.82
2022-08-02T02:28:41.177Z,15.88
2022-08-02T02:31:11.858Z,15.75
2022-08-02T02:33:49.462Z,15.59
2022-08-02T02:36:18.898Z,15.68
2022-08-02T02:38:47.076Z,15.83
2022-08-02T02:41:14.957Z,15.79
2022-08-02T02:43:43.485Z,15.79
2022-08-02T02:46:11.725Z,15.85
2022-08-02T02:48:38.437Z,15.93
2022-08-02T02:51:06.333Z,15.90
2022-08-02T02:54:29.902Z,15.89
2022-08-02T02:56:23.854Z,15.75
2022-08-02T02:58:50.984Z,15.54
2022-08-02T03:01:55.884Z,15.65
2022-08-02T03:04:21.188Z,15.65
2022-08-02T03:06:48.042Z,15.61
2022-08-02T03:09:14.733Z,15.49
2022-08-02T03:11:41.828Z,15.23
2022-08-02T03:14:12.481Z,15.24
2022-08-02T03:16:50.527Z,15.35
2022-08-02T03:19:17.945Z,15.47
2022-08-02T03:21:46.259Z,15.58
2022-08-02T03:24:14.059Z,15.64
2022-08-02T03:26:41.963Z,15.69
2022-08-02T03:29:09.798Z,15.72
2022-08-02T03:31:41.654Z,15.63
2022-08-02T03:34:08.542Z,15.32
2022-08-02T03:36:36.420Z,15.04
2022-08-02T03:39:05.134Z,15.11
2022-08-02T03:41:33.347Z,15.27
2022-08-02T03:44:00.878Z,15.37
2022-08-02T03:46:27.953Z,15.41
2022-08-02T03:48:55.202Z,15.49
2022-08-02T03:51:22.886Z,15.55
2022-08-02T03:53:49.687Z,15.57
2022-08-02T03:56:16.936Z,15.46
2022-08-02T03:58:48.878Z,15.31
2022-08-02T04:01:16.688Z,15.10
2022-08-02T04:03:46.390Z,15.18
2022-08-02T04:06:12.876Z,15.38
2022-08-02T04:08:42.403Z,15.48
2022-08-02T04:11:27.595Z,15.55
2022-08-02T04:13:56.750Z,15.63
2022-08-02T04:16:48.334Z,15.67
2022-08-02T04:19:25.764Z,15.58
2022-08-02T04:21:54.820Z,15.48
2022-08-02T04:24:28.329Z,15.39
2022-08-02T04:26:57.748Z,15.08
2022-08-02T04:29:34.145Z,14.90
2022-08-02T04:32:00.973Z,15.03
2022-08-02T04:34:28.097Z,15.28
2022-08-02T04:36:55.016Z,15.26
2022-08-02T04:39:21.535Z,15.08
2022-08-02T04:41:48.193Z,15.19
2022-08-02T04:44:14.855Z,15.45
2022-08-02T04:46:44.034Z,15.47
2022-08-02T04:49:13.119Z,15.26
2022-08-02T04:51:41.399Z,15.29
2022-08-02T04:54:10.335Z,15.36
2022-08-02T04:56:38.940Z,15.40
2022-08-02T04:59:06.549Z,15.52
2022-08-02T05:01:33.495Z,15.66
2022-08-02T05:04:00.012Z,15.44
2022-08-02T05:06:26.667Z,15.29
2022-08-02T05:08:53.753Z,15.22
2022-08-02T05:11:34.312Z,15.15
2022-08-02T05:14:03.842Z,15.35
2022-08-02T05:16:31.572Z,15.43
2022-08-02T05:18:59.602Z,15.45
2022-08-02T05:21:26.472Z,15.46
2022-08-02T05:23:53.027Z,15.76
2022-08-02T05:26:19.742Z,16.03
2022-08-02T05:28:46.467Z,16.18
2022-08-02T05:31:13.400Z,16.32
2022-08-02T05:33:40.524Z,16.45
2022-08-02T05:36:09.304Z,16.59
2022-08-02T05:38:37.237Z,16.71
2022-08-02T05:41:04.639Z,16.87
2022-08-02T05:43:31.322Z,17.00
2022-08-02T05:45:58.017Z,17.06
2022-08-02T05:48:30.679Z,17.14
2022-08-02T05:51:05.321Z,17.27
2022-08-02T05:53:45.568Z,17.34
2022-08-02T05:56:33.722Z,17.19
2022-08-02T05:59:04.471Z,17.08
2022-08-02T06:01:37.885Z,17.05
2022-08-02T06:04:10.592Z,17.05
2022-08-02T06:06:37.977Z,17.11
2022-08-02T06:09:10.862Z,17.20
2022-08-02T06:12:01.802Z,17.28
2022-08-02T06:14:33.104Z,17.39
2022-08-02T06:17:04.506Z,17.54
2022-08-02T06:19:46.795Z,17.63
2022-08-02T06:22:35.944Z,17.64
2022-08-02T06:25:05.480Z,17.68
2022-08-02T06:27:34.192Z,17.71
2022-08-02T06:30:02.375Z,17.76
2022-08-02T06:32:28.895Z,17.84
2022-08-02T06:34:55.634Z,17.85
2022-08-02T06:37:35.710Z,17.85
2022-08-02T06:40:18.852Z,17.82
2022-08-02T06:42:52.283Z,17.88
2022-08-02T06:45:19.065Z,17.90
2022-08-02T06:47:45.798Z,18.02
2022-08-02T06:50:12.429Z,18.13
2022-08-02T06:52:39.319Z,18.21
2022-08-02T06:55:06.768Z,18.36
2022-08-02T06:57:33.978Z,18.47
2022-08-02T07:00:06.883Z,18.55
2022-08-02T07:02:37.657Z,18.63
2022-08-02T07:05:04.873Z,18.71
2022-08-02T07:07:31.731Z,18.80
2022-08-02T07:10:01.246Z,18.88
2022-08-02T07:12:32.839Z,19.04
2022-08-02T07:15:00.917Z,19.15
2022-08-02T07:17:28.486Z,19.22
2022-08-02T07:19:55.257Z,19.15
2022-08-02T07:22:23.553Z,19.18
2022-08-02T07:24:51.103Z,19.20
2022-08-02T07:27:17.730Z,19.22
2022-08-02T07:29:46.071Z,19.18
2022-08-02T07:32:20.825Z,19.21
2022-08-02T07:34:53.055Z,19.33
2022-08-02T07:37:52.949Z,19.45
2022-08-02T07:40:14.706Z,19.56
2022-08-02T07:42:45.087Z,19.66
2022-08-02T07:45:13.269Z,19.83
2022-08-02T07:47:41.027Z,19.97
2022-08-02T07:50:09.730Z,20.20
2022-08-02T07:52:36.396Z,20.36
2022-08-02T07:55:03.540Z,20.44
2022-08-02T07:57:31.040Z,20.65
2022-08-02T07:59:57.664Z,20.85
2022-08-02T08:02:25.100Z,21.06
2022-08-02T08:04:52.936Z,20.92
2022-08-02T08:07:20.307Z,21.01
2022-08-02T08:09:48.145Z,21.13
2022-08-02T08:12:16.302Z,21.15
2022-08-02T08:14:43.901Z,21.02
2022-08-02T08:17:10.429Z,21.12
2022-08-02T08:19:50.766Z,21.36
2022-08-02T08:22:18.484Z,21.63
2022-08-02T08:24:45.412Z,21.87
2022-08-02T08:27:14.651Z,22.26
2022-08-02T08:29:45.217Z,22.46
2022-08-02T08:32:17.829Z,22.63
2022-08-02T08:34:46.006Z,22.82
2022-08-02T08:37:17.057Z,22.80
2022-08-02T08:39:56.983Z,22.89
2022-08-02T08:42:29.366Z,23.15
2022-08-02T08:44:57.719Z,23.27
2022-08-02T08:47:36.896Z,23.26
2022-08-02T08:50:06.624Z,23.19
2022-08-02T08:52:42.313Z,23.12
2022-08-02T08:55:11.991Z,22.77
2022-08-02T08:57:43.601Z,22.35
2022-08-02T09:00:16.895Z,22.16
2022-08-02T09:02:43.912Z,22.45
2022-08-02T09:05:12.490Z,22.80
2022-08-02T09:07:39.307Z,23.07
2022-08-02T09:10:33.728Z,23.35
2022-08-02T09:13:38.838Z,23.63
2022-08-02T09:16:12.792Z,23.77
2022-08-02T09:18:45.276Z,23.91
2022-08-02T09:21:13.750Z,24.09
2022-08-02T09:23:42.658Z,24.14
2022-08-02T09:26:11.349Z,24.14
2022-08-02T09:28:40.591Z,24.13
2022-08-02T09:31:12.492Z,24.13
2022-08-02T09:33:40.980Z,24.40
2022-08-02T09:36:13.076Z,24.54
2022-08-02T09:38:41.109Z,24.71
2022-08-02T09:41:22.037Z,24.86
2022-08-02T09:43:57.941Z,24.90
2022-08-02T09:46:37.642Z,24.97
2022-08-02T09:49:09.921Z,24.94
2022-08-02T09:51:47.426Z,25.07
2022-08-02T09:54:28.714Z,25.00
2022-08-02T09:56:58.190Z,25.21
2022-08-02T09:59:26.136Z,25.17
2022-08-02T10:02:02.616Z,25.14
2022-08-02T10:04:51.962Z,25.20
2022-08-02T10:07:22.333Z,25.34
2022-08-02T10:09:50.893Z,25.28
2022-08-02T10:12:19.100Z,25.22
2022-08-02T10:14:46.030Z,25.53
2022-08-02T10:17:13.406Z,25.27
2022-08-02T10:20:03.077Z,25.29
2022-08-02T10:22:27.355Z,25.15
2022-08-02T10:24:54.000Z,25.28
2022-08-02T10:27:21.379Z,25.49
2022-08-02T10:29:53.969Z,25.48
2022-08-02T10:32:37.560Z,25.71
2022-08-02T10:35:23.333Z,25.77
2022-08-02T10:37:56.490Z,25.77
2022-08-02T10:40:24.231Z,25.85
2022-08-02T10:42:53.446Z,25.86
2022-08-02T10:45:22.401Z,25.90
2022-08-02T10:48:11.967Z,25.91
2022-08-02T10:50:47.993Z,26.03
2022-08-02T10:53:25.677Z,25.67
2022-08-02T10:55:53.807Z,25.50
2022-08-02T10:58:26.281Z,25.97
2022-08-02T11:00:57.625Z,26.21
2022-08-02T11:03:41.950Z,26.04
2022-08-02T11:06:25.675Z,25.70
2022-08-02T11:09:33.369Z,26.16
2022-08-02T11:12:13.466Z,26.33
2022-08-02T11:14:45.830Z,26.34
2022-08-02T11:17:19.689Z,26.24
2022-08-02T11:20:11.045Z,26.14
2022-08-02T11:22:40.761Z,26.22
2022-08-02T11:25:22.613Z,26.41
2022-08-02T11:27:53.128Z,26.55
2022-08-02T11:30:20.685Z,26.60
2022-08-02T11:33:00.820Z,26.72
2022-08-02T11:35:35.568Z,26.79
2022-08-02T11:38:19.741Z,26.86
2022-08-02T11:40:48.108Z,27.00
2022-08-02T11:43:23.444Z,27.04
2022-08-02T11:45:52.452Z,26.71
2022-08-02T11:48:32.083Z,26.25
2022-08-02T11:51:10.898Z,26.19
2022-08-02T11:53:57.447Z,26.25
2022-08-02T11:56:35.614Z,26.30
2022-08-02T11:59:14.646Z,26.45
2022-08-02T12:01:45.697Z,26.30
2022-08-02T12:04:16.283Z,26.38
2022-08-02T12:06:43.761Z,26.59
2022-08-02T12:09:18.880Z,26.62
2022-08-02T12:11:51.647Z,26.56
2022-08-02T12:14:18.895Z,26.53
2022-08-02T12:17:04.241Z,26.63
2022-08-02T12:19:34.616Z,26.57
2022-08-02T12:22:18.659Z,26.55
2022-08-02T12:24:50.548Z,26.70
2022-08-02T12:27:38.187Z,26.91
2022-08-02T12:30:04.651Z,27.17
2022-08-02T12:32:31.294Z,27.23
2022-08-02T12:35:05.988Z,27.05
2022-08-02T12:37:32.724Z,27.16
2022-08-02T12:40:17.168Z,26.93
2022-08-02T12:42:49.526Z,26.70
2022-08-02T12:45:16.908Z,27.07
2022-08-02T12:47:49.229Z,27.12
2022-08-02T12:50:37.317Z,26.98
2022-08-02T12:53:11.304Z,27.13
2022-08-02T12:56:01.179Z,27.22
2022-08-02T12:58:31.077Z,27.38
2022-08-02T13:01:00.461Z,27.47
2022-08-02T13:04:09.227Z,27.10
2022-08-02T13:06:39.828Z,26.65
2022-08-02T13:09:03.123Z,26.38
2022-08-02T13:11:29.680Z,26.68
2022-08-02T13:13:56.225Z,26.85
2022-08-02T13:16:31.308Z,26.72
2022-08-02T13:18:59.223Z,26.60
2022-08-02T13:21:39.893Z,26.69
2022-08-02T13:24:32.941Z,26.67
2022-08-02T13:26:54.708Z,26.42
2022-08-02T13:29:21.338Z,26.43
2022-08-02T13:31:47.933Z,26.46
2022-08-02T13:34:16.540Z,26.27
2022-08-02T13:36:43.508Z,26.32
2022-08-02T13:39:11.882Z,26.39
2022-08-02T13:41:38.456Z,26.28
2022-08-02T13:44:10.409Z,26.38
2022-08-02T13:46:45.124Z,26.42
2022-08-02T13:49:18.546Z,26.23
2022-08-02T13:51:46.206Z,26.08
2022-08-02T13:54:12.794Z,26.08
2022-08-02T13:56:39.391Z,26.16
2022-08-02T13:59:54.925Z,26.23
2022-08-02T14:01:54.209Z,26.38
2022-08-02T14:04:20.853Z,26.31
2022-08-02T14:06:47.406Z,26.33
2022-08-02T14:09:16.824Z,26.40
2022-08-02T14:11:44.204Z,26.46
2022-08-02T14:14:16.237Z,26.27
2022-08-02T14:16:44.669Z,26.41
2022-08-02T14:19:16.802Z,26.51
2022-08-02T14:21:46.996Z,26.40
2022-08-02T14:24:18.825Z,26.39
2022-08-02T14:26:45.997Z,26.53
2022-08-02T14:29:13.802Z,26.49
2022-08-02T14:31:44.363Z,26.43
2022-08-02T14:34:12.117Z,26.40
2022-08-02T14:36:39.189Z,26.38
2022-08-02T14:39:06.223Z,26.23
2022-08-02T14:41:33.989Z,26.24
2022-08-02T14:44:20.571Z,26.26
2022-08-02T14:46:47.208Z,26.20
2022-08-02T14:49:25.374Z,26.27
2022-08-02T14:51:53.290Z,26.27
2022-08-02T14:54:19.895Z,26.26
2022-08-02T14:56:46.427Z,26.15
2022-08-02T14:59:15.491Z,26.10
2022-08-02T15:01:42.083Z,26.14
2022-08-02T15:04:08.691Z,26.14
2022-08-02T15:06:35.229Z,26.13
2022-08-02T15:09:01.851Z,26.14
2022-08-02T15:11:28.582Z,26.10
2022-08-02T15:13:55.274Z,26.14
2022-08-02T15:16:47.305Z,26.16
2022-08-02T15:19:13.139Z,26.14
2022-08-02T15:21:41.829Z,26.20
2022-08-02T15:24:19.068Z,26.24
2022-08-02T15:26:50.309Z,26.13
2022-08-02T15:29:17.750Z,25.99
2022-08-02T15:31:44.319Z,25.92
2022-08-02T15:34:10.985Z,25.97
2022-08-02T15:36:38.053Z,26.11
2022-08-02T15:39:04.917Z,26.25
2022-08-02T15:41:31.958Z,26.28
2022-08-02T15:44:00.063Z,26.33
2022-08-02T15:46:32.141Z,26.38
2022-08-02T15:48:59.648Z,26.33
2022-08-02T15:51:27.077Z,26.34
2022-08-02T15:53:53.693Z,26.34
2022-08-02T15:56:23.856Z,26.27
2022-08-02T15:58:51.886Z,26.23
2022-08-02T16:01:22.795Z,26.20
2022-08-02T16:03:49.433Z,26.17
2022-08-02T16:06:15.957Z,26.16
2022-08-02T16:08:51.662Z,26.16
2022-08-02T16:11:21.553Z,26.14
2022-08-02T16:13:54.041Z,26.09
2022-08-02T16:16:29.240Z,26.07
2022-08-02T16:18:56.506Z,26.05
2022-08-02T16:21:24.745Z,26.01
2022-08-02T16:24:01.165Z,26.04
2022-08-02T16:26:31.228Z,26.10
2022-08-02T16:28:58.907Z,26.04
2022-08-02T16:31:25.682Z,25.99
2022-08-02T16:33:56.621Z,25.93
2022-08-02T16:36:24.375Z,25.83
2022-08-02T16:38:51.354Z,25.81
2022-08-02T16:41:19.143Z,25.84
2022-08-02T16:43:45.886Z,25.89
2022-08-02T16:46:12.633Z,25.84
2022-08-02T16:48:39.400Z,25.88
2022-08-02T16:51:13.508Z,25.91
2022-08-02T16:53:59.876Z,25.91
2022-08-02T16:56:28.857Z,25.82
2022-08-02T16:58:59.795Z,25.74
2022-08-02T17:01:28.065Z,25.76
2022-08-02T17:04:14.302Z,25.78
2022-08-02T17:06:47.578Z,25.73
2022-08-02T17:10:01.894Z,25.68
2022-08-02T17:12:06.171Z,25.72
2022-08-02T17:14:41.979Z,25.64
2022-08-02T17:17:21.995Z,25.52
2022-08-02T17:20:04.144Z,25.45
2022-08-02T17:22:30.679Z,25.55
2022-08-02T17:25:04.635Z,25.56
2022-08-02T17:27:31.173Z,25.55
2022-08-02T17:29:59.694Z,25.55
2022-08-02T17:32:29.088Z,25.50
2022-08-02T17:34:59.966Z,25.48
2022-08-02T17:37:27.251Z,25.48
2022-08-02T17:39:55.634Z,25.44
2022-08-02T17:42:23.130Z,25.40
2022-08-02T17:44:50.252Z,25.38
2022-08-02T17:47:18.149Z,25.33
2022-08-02T17:49:52.646Z,25.33
2022-08-02T17:52:51.516Z,25.30
2022-08-02T17:55:16.644Z,25.24
2022-08-02T17:57:55.892Z,25.21
2022-08-02T18:00:26.933Z,25.17
2022-08-02T18:02:56.309Z,25.18
2022-08-02T18:05:41.576Z,25.16
2022-08-02T18:08:18.309Z,25.14
2022-08-02T18:10:45.345Z,25.12
2022-08-02T18:13:11.864Z,25.10
2022-08-02T18:15:38.715Z,25.02
2022-08-02T18:18:05.247Z,25.04
2022-08-02T18:20:36.952Z,25.02
2022-08-02T18:23:04.313Z,24.94
2022-08-02T18:25:37.881Z,24.74
2022-08-02T18:28:12.472Z,24.58
2022-08-02T18:30:39.217Z,24.55
2022-08-02T18:33:57.605Z,24.51
2022-08-02T18:35:55.386Z,24.43
2022-08-02T18:38:26.868Z,24.34
2022-08-02T18:40:54.684Z,24.30
2022-08-02T18:43:25.066Z,24.21
2022-08-02T18:46:07.159Z,24.09
2022-08-02T18:48:46.188Z,24.00
2022-08-02T18:51:14.563Z,23.90
2022-08-02T18:53:42.913Z,23.87
2022-08-02T18:56:19.760Z,23.79
2022-08-02T18:58:50.792Z,23.70
2022-08-02T19:01:32.670Z,23.62
2022-08-02T19:04:01.596Z,23.52
2022-08-02T19:06:29.086Z,23.45
2022-08-02T19:09:11.611Z,23.46
2022-08-02T19:11:47.930Z,23.42
2022-08-02T19:14:27.035Z,23.34
2022-08-02T19:16:59.535Z,23.27
2022-08-02T19:19:28.780Z,23.20
2022-08-02T19:22:18.266Z,23.21
2022-08-02T19:24:47.813Z,23.20
2022-08-02T19:27:15.339Z,23.15
2022-08-02T19:29:49.050Z,23.08
2022-08-02T19:32:41.448Z,23.11
2022-08-02T19:35:19.838Z,23.08
2022-08-02T19:38:10.598Z,23.03
2022-08-02T19:40:41.774Z,23.00
2022-08-02T19:44:27.201Z,22.98
2022-08-02T19:45:57.110Z,22.96
2022-08-02T19:48:25.494Z,22.93
2022-08-02T19:51:01.040Z,22.91
2022-08-02T19:53:48.299Z,22.85
2022-08-02T19:56:25.374Z,22.81
2022-08-02T19:58:55.704Z,22.76
2022-08-02T20:01:37.043Z,22.73
2022-08-02T20:04:07.709Z,22.70
2022-08-02T20:06:42.698Z,22.66
2022-08-02T20:09:21.516Z,22.65
2022-08-02T20:11:54.268Z,22.63
2022-08-02T20:14:24.860Z,22.58
2022-08-02T20:16:53.950Z,22.55
2022-08-02T20:19:21.769Z,22.51
2022-08-02T20:21:56.675Z,22.50
2022-08-02T20:24:26.664Z,22.48
2022-08-02T20:26:53.502Z,22.39
2022-08-02T20:29:48.385Z,22.37
2022-08-02T20:32:07.851Z,22.37
2022-08-02T20:34:36.167Z,22.31
2022-08-02T20:37:59.883Z,22.29
2022-08-02T20:39:51.029Z,22.29
2022-08-02T20:42:23.415Z,22.26
2022-08-02T20:44:55.211Z,22.13
2022-08-02T20:47:38.849Z,21.91
2022-08-02T20:50:30.471Z,21.60
2022-08-02T20:52:59.220Z,21.37
2022-08-02T20:55:27.035Z,21.24
2022-08-02T20:58:00.561Z,21.15
2022-08-02T21:00:28.322Z,21.09
2022-08-02T21:02:55.503Z,21.05
2022-08-02T21:05:27.007Z,21.00
2022-08-02T21:08:14.227Z,21.00
2022-08-02T21:10:50.544Z,20.95
2022-08-02T21:13:26.233Z,20.99
2022-08-02T21:15:55.403Z,21.03
2022-08-02T21:18:37.694Z,21.01
2022-08-02T21:21:09.035Z,20.94
2022-08-02T21:23:48.689Z,20.93
2022-08-02T21:26:16.109Z,20.93
2022-08-02T21:28:47.614Z,20.87
2022-08-02T21:31:18.351Z,20.81
2022-08-02T21:33:57.001Z,20.85
2022-08-02T21:36:33.817Z,20.90
2022-08-02T21:39:05.198Z,20.95
2022-08-02T21:41:48.792Z,21.05
2022-08-02T21:44:16.742Z,21.10
2022-08-02T21:46:49.262Z,21.15
2022-08-02T21:49:40.792Z,21.23
2022-08-02T21:52:10.283Z,21.26
2022-08-02T21:54:39.769Z,21.27
2022-08-02T21:57:07.484Z,21.34
2022-08-02T21:59:35.482Z,21.45
2022-08-02T22:02:04.701Z,21.50
2022-08-02T22:04:48.041Z,21.56
2022-08-02T22:07:24.057Z,21.61
2022-08-02T22:09:51.523Z,21.63
2022-08-02T22:12:19.431Z,21.65
2022-08-02T22:14:55.002Z,21.69
2022-08-02T22:17:51.930Z,21.72
2022-08-02T22:20:19.766Z,21.73
2022-08-02T22:22:48.147Z,21.76
2022-08-02T22:25:21.612Z,21.77
2022-08-02T22:28:38.785Z,21.78
2022-08-02T22:31:00.173Z,21.82
2022-08-02T22:34:05.239Z,21.82
2022-08-02T22:36:43.815Z,21.85
2022-08-02T22:39:19.387Z,21.85
2022-08-02T22:42:06.488Z,21.85
2022-08-02T22:44:37.915Z,21.83
2022-08-02T22:47:14.988Z,21.82
2022-08-02T22:49:51.723Z,21.77
2022-08-02T22:52:29.250Z,21.80
2022-08-02T22:54:55.814Z,21.81
2022-08-02T22:57:30.976Z,21.83
2022-08-02T22:59:59.479Z,21.78
2022-08-02T23:02:26.160Z,21.82
2022-08-02T23:04:55.539Z,21.81
2022-08-02T23:07:22.099Z,21.82
2022-08-02T23:09:48.635Z,21.83
2022-08-02T23:12:19.214Z,21.84
2022-08-02T23:14:50.601Z,21.81
2022-08-02T23:17:36.409Z,21.77
2022-08-02T23:20:04.385Z,21.77
2022-08-02T23:22:33.201Z,21.78
2022-08-02T23:25:01.235Z,21.77
2022-08-02T23:27:29.430Z,21.78
2022-08-02T23:29:59.335Z,21.82
2022-08-02T23:32:32.688Z,21.83
2022-08-02T23:34:59.285Z,21.81
2022-08-02T23:37:26.197Z,21.85
2022-08-02T23:39:52.840Z,21.88
2022-08-02T23:42:19.669Z,21.79
2022-08-02T23:44:46.230Z,21.57
2022-08-02T23:47:12.877Z,21.44
2022-08-02T23:49:39.553Z,21.45
2022-08-02T23:52:09.615Z,21.40
2022-08-02T23:54:38.849Z,21.25
2022-08-02T23:57:20.113Z,21.13
2022-08-02T23:59:48.754Z,20.93
